createdAt,value
2023-10-23T00:01:43.623Z,9.32
2023-10-23T00:04:11.323Z,9.76
2023-10-23T00:06:43.302Z,9.30
2023-10-23T00:09:10.394Z,9.41
2023-10-23T00:11:37.700Z,9.49
2023-10-23T00:14:04.891Z,9.34
2023-10-23T00:16:32.157Z,9.23
2023-10-23T00:18:59.381Z,9.28
2023-10-23T00:21:26.606Z,9.09
2023-10-23T00:23:53.678Z,9.59
2023-10-23T00:26:20.757Z,9.18
2023-10-23T00:28:49.101Z,9.58
2023-10-23T00:31:16.270Z,9.30
2023-10-23T00:33:43.956Z,9.59
2023-10-23T00:36:11.166Z,9.34
2023-10-23T00:38:38.287Z,7.99
2023-10-23T00:41:05.402Z,9.58
2023-10-23T00:43:32.534Z,9.20
2023-10-23T00:46:00.904Z,9.55
2023-10-23T00:48:28.821Z,9.37
2023-10-23T00:51:00.334Z,9.13
2023-10-23T00:53:29.505Z,9.51
2023-10-23T00:55:58.294Z,9.49
2023-10-23T00:58:28.722Z,9.26
2023-10-23T01:03:32.218Z,9.48
2023-10-23T01:05:59.496Z,8.30
2023-10-23T01:08:26.578Z,8.91
2023-10-23T01:10:53.796Z,8.72
2023-10-23T01:13:21.171Z,8.92
2023-10-23T01:15:48.891Z,9.46
2023-10-23T01:18:16.206Z,9.46
2023-10-23T01:20:43.412Z,8.29
2023-10-23T01:23:10.649Z,9.43
2023-10-23T01:25:38.048Z,8.58
2023-10-23T01:28:05.537Z,8.73
2023-10-23T01:30:33.200Z,8.51
2023-10-23T01:33:00.516Z,8.40
2023-10-23T01:35:27.630Z,8.98
2023-10-23T01:37:54.981Z,8.69
2023-10-23T01:40:22.178Z,7.68
2023-10-23T01:42:50.411Z,7.52
2023-10-23T01:45:18.236Z,8.82
2023-10-23T01:47:45.347Z,9.18
2023-10-23T01:50:12.457Z,8.68
2023-10-23T01:52:40.591Z,9.16
2023-10-23T01:55:08.030Z,7.92
2023-10-23T01:57:35.140Z,9.15
2023-10-23T02:00:08.148Z,9.14
2023-10-23T02:02:35.310Z,8.33
2023-10-23T02:05:02.682Z,8.69
2023-10-23T02:07:29.940Z,9.11
2023-10-23T02:10:00.295Z,8.70
2023-10-23T02:12:27.411Z,8.80
2023-10-23T02:14:54.542Z,9.05
2023-10-23T02:17:21.948Z,8.64
2023-10-23T02:19:49.266Z,8.84
2023-10-23T02:22:17.841Z,9.00
2023-10-23T02:24:45.014Z,8.57
2023-10-23T02:27:12.513Z,7.77
2023-10-23T02:29:42.104Z,8.95
2023-10-23T02:32:09.785Z,7.79
2023-10-23T02:34:38.287Z,8.53
2023-10-23T02:37:05.714Z,8.77
2023-10-23T02:39:33.329Z,8.28
2023-10-23T02:42:01.145Z,8.09
2023-10-23T02:44:28.316Z,7.83
2023-10-23T02:46:55.424Z,8.80
2023-10-23T02:49:22.565Z,8.33
2023-10-23T02:51:49.870Z,8.84
2023-10-23T02:54:18.388Z,8.67
2023-10-23T02:56:45.511Z,8.51
2023-10-23T02:59:12.740Z,7.36
2023-10-23T03:01:39.942Z,8.82
2023-10-23T03:04:07.912Z,8.62
2023-10-23T03:06:38.614Z,8.33
2023-10-23T03:09:06.347Z,8.84
2023-10-23T03:11:33.442Z,7.61
2023-10-23T03:14:00.627Z,8.11
2023-10-23T03:16:27.997Z,7.87
2023-10-23T03:18:55.300Z,7.95
2023-10-23T03:21:23.511Z,8.27
2023-10-23T03:23:51.453Z,8.64
2023-10-23T03:26:18.788Z,8.64
2023-10-23T03:28:45.917Z,8.79
2023-10-23T03:31:13.140Z,8.91
2023-10-23T03:33:41.574Z,8.92
2023-10-23T03:36:08.837Z,8.76
2023-10-23T03:38:36.151Z,8.22
2023-10-23T03:41:03.446Z,8.73
2023-10-23T03:43:30.580Z,8.58
2023-10-23T03:45:57.785Z,8.91
2023-10-23T03:48:24.905Z,8.16
2023-10-23T03:50:52.077Z,6.82
2023-10-23T03:53:19.142Z,8.23
2023-10-23T03:55:46.202Z,7.57
2023-10-23T03:58:13.285Z,8.85
2023-10-23T04:00:40.448Z,7.79
2023-10-23T04:03:07.603Z,7.05
2023-10-23T04:05:41.506Z,7.50
2023-10-23T04:08:08.761Z,7.90
2023-10-23T04:10:35.886Z,8.26
2023-10-23T04:13:03.353Z,8.22
2023-10-23T04:15:30.486Z,8.23
2023-10-23T04:17:57.630Z,7.95
2023-10-23T04:20:25.016Z,8.59
2023-10-23T04:22:52.178Z,8.21
2023-10-23T04:25:19.681Z,7.93
2023-10-23T04:27:47.149Z,7.83
2023-10-23T04:30:14.584Z,7.96
2023-10-23T04:32:41.762Z,8.11
2023-10-23T04:35:08.884Z,5.32
2023-10-23T04:37:35.999Z,8.50
2023-10-23T04:40:03.182Z,8.02
2023-10-23T04:42:30.308Z,8.47
2023-10-23T04:44:57.455Z,7.13
2023-10-23T04:47:24.590Z,7.53
2023-10-23T04:49:51.760Z,8.41
2023-10-23T04:52:19.547Z,7.18
2023-10-23T04:54:47.235Z,8.36
2023-10-23T04:57:14.381Z,7.69
2023-10-23T04:59:41.547Z,8.31
2023-10-23T05:02:08.619Z,8.30
2023-10-23T05:04:35.773Z,7.26
2023-10-23T05:07:02.961Z,7.83
2023-10-23T05:09:30.154Z,8.09
2023-10-23T05:11:57.311Z,7.95
2023-10-23T05:14:24.477Z,8.32
2023-10-23T05:16:51.540Z,6.60
2023-10-23T05:19:18.904Z,8.32
2023-10-23T05:21:46.002Z,8.17
2023-10-23T05:24:13.036Z,7.43
2023-10-23T05:26:40.137Z,7.03
2023-10-23T05:29:07.278Z,6.47
2023-10-23T05:31:34.398Z,8.11
2023-10-23T05:34:01.479Z,4.96
2023-10-23T05:36:29.644Z,7.30
2023-10-23T05:38:56.953Z,7.21
2023-10-23T05:41:24.009Z,7.51
2023-10-23T05:43:51.094Z,8.17
2023-10-23T05:46:22.490Z,8.21
2023-10-23T05:48:50.280Z,7.80
2023-10-23T05:51:17.417Z,8.00
2023-10-23T05:53:44.558Z,7.65
2023-10-23T05:56:11.684Z,8.30
2023-10-23T05:58:39.269Z,7.31
2023-10-23T06:01:07.801Z,7.14
2023-10-23T06:03:35.577Z,7.52
2023-10-23T06:06:02.847Z,8.30
2023-10-23T06:08:29.990Z,7.58
2023-10-23T06:10:57.172Z,7.60
2023-10-23T06:13:24.301Z,7.04
2023-10-23T06:15:52.019Z,8.07
2023-10-23T06:18:19.248Z,6.16
2023-10-23T06:20:46.832Z,6.42
2023-10-23T06:23:13.932Z,7.54
2023-10-23T06:25:41.193Z,7.45
2023-10-23T06:28:08.527Z,7.22
2023-10-23T06:30:38.774Z,6.98
2023-10-23T06:33:05.915Z,7.68
2023-10-23T06:35:33.145Z,7.73
2023-10-23T06:38:00.246Z,7.53
2023-10-23T06:40:27.347Z,6.57
2023-10-23T06:42:54.724Z,7.97
2023-10-23T06:45:21.874Z,7.73
2023-10-23T06:47:50.451Z,7.33
2023-10-23T06:50:18.549Z,8.01
2023-10-23T06:52:46.804Z,7.61
2023-10-23T06:55:14.099Z,8.02
2023-10-23T06:57:41.159Z,7.10
2023-10-23T07:00:08.655Z,7.31
2023-10-23T07:02:35.918Z,8.07
2023-10-23T07:05:03.114Z,7.51
2023-10-23T07:07:30.810Z,6.12
2023-10-23T07:10:00.823Z,7.01
2023-10-23T07:12:28.795Z,8.17
2023-10-23T07:14:55.996Z,8.21
2023-10-23T07:17:23.162Z,6.80
2023-10-23T07:19:50.701Z,8.27
2023-10-23T07:22:18.722Z,8.31
2023-10-23T07:24:45.851Z,6.25
2023-10-23T07:27:19.059Z,8.17
2023-10-23T07:29:46.107Z,7.59
2023-10-23T07:32:13.330Z,8.44
2023-10-23T07:34:40.424Z,7.93
2023-10-23T07:37:07.522Z,7.95
2023-10-23T07:39:36.365Z,7.18
2023-10-23T07:42:04.329Z,7.18
2023-10-23T07:44:31.344Z,7.96
2023-10-23T07:46:58.571Z,8.64
2023-10-23T07:49:25.803Z,8.68
2023-10-23T07:51:54.331Z,8.72
2023-10-23T07:54:21.869Z,8.73
2023-10-23T07:56:48.973Z,8.38
2023-10-23T07:59:19.017Z,7.97
2023-10-23T08:01:46.210Z,7.77
2023-10-23T08:04:13.869Z,8.83
2023-10-23T08:06:41.038Z,8.55
2023-10-23T08:09:08.144Z,7.88
2023-10-23T08:11:35.195Z,8.92
2023-10-23T08:14:02.268Z,8.97
2023-10-23T08:16:29.447Z,8.77
2023-10-23T08:18:58.699Z,9.09
2023-10-23T08:21:29.641Z,9.16
2023-10-23T08:23:59.653Z,8.83
2023-10-23T08:26:26.758Z,8.51
2023-10-23T08:29:02.488Z,9.45
2023-10-23T08:34:00.692Z,8.69
2023-10-23T08:36:28.195Z,9.38
2023-10-23T08:38:55.571Z,9.34
2023-10-23T08:41:22.881Z,10.33
2023-10-23T08:43:50.053Z,10.34
2023-10-23T08:46:17.228Z,8.31
2023-10-23T08:48:44.777Z,10.90
2023-10-23T08:51:11.957Z,9.29
2023-10-23T08:54:12.705Z,10.85
2023-10-23T08:56:42.540Z,11.40
2023-10-23T08:59:15.534Z,11.56
2023-10-23T09:01:43.004Z,11.04
2023-10-23T09:04:12.481Z,10.76
2023-10-23T09:06:40.465Z,11.81
2023-10-23T09:09:08.050Z,9.27
2023-10-23T09:11:50.049Z,12.07
2023-10-23T09:14:25.840Z,10.36
2023-10-23T09:16:55.093Z,12.28
2023-10-23T09:19:26.777Z,12.09
2023-10-23T09:21:55.566Z,11.47
2023-10-23T09:24:23.421Z,9.34
2023-10-23T09:26:51.824Z,12.56
2023-10-23T09:29:23.463Z,12.13
2023-10-23T09:31:51.916Z,11.41
2023-10-23T09:34:22.501Z,11.98
2023-10-23T09:36:53.038Z,12.39
2023-10-23T09:39:20.903Z,12.04
2023-10-23T09:41:48.802Z,12.38
2023-10-23T09:44:19.034Z,12.60
2023-10-23T09:46:48.722Z,12.57
2023-10-23T09:49:16.055Z,11.59
2023-10-23T09:51:43.521Z,12.66
2023-10-23T09:54:18.807Z,12.60
2023-10-23T09:56:48.956Z,12.57
2023-10-23T09:59:40.242Z,12.08
2023-10-23T10:02:07.694Z,11.86
2023-10-23T10:05:02.006Z,11.94
2023-10-23T10:07:51.496Z,12.27
2023-10-23T10:10:18.674Z,12.23
2023-10-23T10:12:45.855Z,12.17
2023-10-23T10:15:13.342Z,11.76
2023-10-23T10:17:45.201Z,11.69
2023-10-23T10:20:13.078Z,12.04
2023-10-23T10:22:41.408Z,10.66
2023-10-23T10:25:09.452Z,12.01
2023-10-23T10:27:36.851Z,12.01
2023-10-23T10:30:10.490Z,11.36
2023-10-23T10:34:25.839Z,11.71
2023-10-23T10:35:41.788Z,11.77
2023-10-23T10:38:17.214Z,11.16
2023-10-23T10:41:06.767Z,12.01
2023-10-23T10:43:35.508Z,11.28
2023-10-23T10:46:05.707Z,11.82
2023-10-23T10:48:43.588Z,11.95
2023-10-23T10:51:11.104Z,11.38
2023-10-23T10:53:44.165Z,11.07
2023-10-23T10:56:11.336Z,11.80
2023-10-23T10:58:39.216Z,11.13
2023-10-23T11:01:06.548Z,11.73
2023-10-23T11:03:35.662Z,11.75
2023-10-23T11:06:02.907Z,11.10
2023-10-23T11:08:30.257Z,10.28
2023-10-23T11:10:58.462Z,11.24
2023-10-23T11:13:25.704Z,11.69
2023-10-23T11:15:56.780Z,11.09
2023-10-23T11:18:24.099Z,10.93
2023-10-23T11:20:51.187Z,11.48
2023-10-23T11:23:23.195Z,11.29
2023-10-23T11:25:51.047Z,11.32
2023-10-23T11:28:22.036Z,10.72
2023-10-23T11:30:56.213Z,11.68
2023-10-23T11:33:23.445Z,10.61
2023-10-23T11:35:50.617Z,11.22
2023-10-23T11:38:19.784Z,11.76
2023-10-23T11:40:50.034Z,11.33
2023-10-23T11:43:19.988Z,11.43
2023-10-23T11:45:48.343Z,11.55
2023-10-23T11:48:15.532Z,10.52
2023-10-23T11:50:42.770Z,11.25
2023-10-23T11:53:09.880Z,11.53
2023-10-23T11:55:38.374Z,11.92
2023-10-23T11:58:05.665Z,11.08
2023-10-23T12:00:35.179Z,10.72
2023-10-23T12:03:02.535Z,11.99
2023-10-23T12:05:29.686Z,11.64
2023-10-23T12:07:57.186Z,11.43
2023-10-23T12:10:28.771Z,11.80
2023-10-23T12:12:56.447Z,12.07
2023-10-23T12:15:24.934Z,11.29
2023-10-23T12:17:52.507Z,10.64
2023-10-23T12:20:23.475Z,12.14
2023-10-23T12:22:51.769Z,10.88
2023-10-23T12:25:18.936Z,11.61
2023-10-23T12:27:46.764Z,12.22
2023-10-23T12:30:24.046Z,11.70
2023-10-23T12:33:16.647Z,11.72
2023-10-23T12:35:42.287Z,11.68
2023-10-23T12:38:11.965Z,9.32
2023-10-23T12:40:44.404Z,12.23
2023-10-23T12:43:12.015Z,12.34
2023-10-23T12:45:39.246Z,10.99
2023-10-23T12:48:06.750Z,12.37
2023-10-23T12:50:34.003Z,12.38
2023-10-23T12:53:01.250Z,12.38
2023-10-23T12:55:28.377Z,12.41
2023-10-23T12:57:55.643Z,12.08
2023-10-23T13:00:22.768Z,10.37
2023-10-23T13:02:49.996Z,11.96
2023-10-23T13:05:18.407Z,11.38
2023-10-23T13:07:45.452Z,11.87
2023-10-23T13:10:12.524Z,12.03
2023-10-23T13:12:39.618Z,12.32
2023-10-23T13:15:07.206Z,12.64
2023-10-23T13:17:34.460Z,12.45
2023-10-23T13:21:27.425Z,12.36
2023-10-23T13:22:50.977Z,12.22
2023-10-23T13:25:19.925Z,12.75
2023-10-23T13:27:47.394Z,12.56
2023-10-23T13:30:14.880Z,12.32
2023-10-23T13:32:42.376Z,12.82
2023-10-23T13:35:09.643Z,11.83
2023-10-23T13:37:36.910Z,12.80
2023-10-23T13:40:09.007Z,12.13
2023-10-23T13:42:36.879Z,12.43
2023-10-23T13:45:04.308Z,12.12
2023-10-23T13:47:32.207Z,12.81
2023-10-23T13:49:59.735Z,12.71
2023-10-23T13:52:27.243Z,12.93
2023-10-23T13:54:55.715Z,12.53
2023-10-23T13:57:22.778Z,11.52
2023-10-23T13:59:49.873Z,12.30
2023-10-23T14:02:17.206Z,12.81
2023-10-23T14:04:44.460Z,12.60
2023-10-23T14:07:13.908Z,12.97
2023-10-23T14:09:46.379Z,10.32
2023-10-23T14:12:15.943Z,11.90
2023-10-23T14:14:43.190Z,12.11
2023-10-23T14:17:13.374Z,13.08
2023-10-23T14:19:47.915Z,12.87
2023-10-23T14:22:17.265Z,13.09
2023-10-23T14:24:44.495Z,13.02
2023-10-23T14:27:11.685Z,10.97
2023-10-23T14:29:39.561Z,13.09
2023-10-23T14:32:07.342Z,12.34
2023-10-23T14:34:34.605Z,12.24
2023-10-23T14:37:01.832Z,11.16
2023-10-23T14:39:29.165Z,12.76
2023-10-23T14:41:56.859Z,13.04
2023-10-23T14:44:26.909Z,11.75
2023-10-23T14:46:54.146Z,12.63
2023-10-23T14:49:23.165Z,13.02
2023-10-23T14:51:53.993Z,12.28
2023-10-23T14:54:21.335Z,12.21
2023-10-23T14:56:51.205Z,12.80
2023-10-23T14:59:22.991Z,12.99
2023-10-23T15:01:50.715Z,11.68
2023-10-23T15:04:20.847Z,12.58
2023-10-23T15:06:48.631Z,12.60
2023-10-23T15:09:15.909Z,11.99
2023-10-23T15:11:43.334Z,12.28
2023-10-23T15:14:10.617Z,12.09
2023-10-23T15:16:39.021Z,12.51
2023-10-23T15:19:06.301Z,12.72
2023-10-23T15:21:33.467Z,12.90
2023-10-23T15:24:00.990Z,12.88
2023-10-23T15:26:28.847Z,11.89
2023-10-23T15:28:56.654Z,12.16
2023-10-23T15:31:23.906Z,12.09
2023-10-23T15:33:51.125Z,12.42
2023-10-23T15:36:21.479Z,12.59
2023-10-23T15:38:48.784Z,12.41
2023-10-23T15:41:15.896Z,12.37
2023-10-23T15:43:48.942Z,12.71
2023-10-23T15:46:19.239Z,12.20
2023-10-23T15:48:47.400Z,12.67
2023-10-23T15:51:15.786Z,10.86
2023-10-23T15:53:43.050Z,12.64
2023-10-23T15:56:10.245Z,11.88
2023-10-23T15:58:37.378Z,12.59
2023-10-23T16:01:05.815Z,12.58
2023-10-23T16:03:36.921Z,12.54
2023-10-23T16:06:09.156Z,12.48
2023-10-23T16:08:37.169Z,12.11
2023-10-23T16:11:04.729Z,11.61
2023-10-23T16:13:38.210Z,12.42
2023-10-23T16:16:16.869Z,12.41
2023-10-23T16:18:45.493Z,12.41
2023-10-23T16:21:13.561Z,12.13
2023-10-23T16:23:40.695Z,12.01
2023-10-23T16:26:07.885Z,12.34
2023-10-23T16:28:35.011Z,12.11
2023-10-23T16:31:02.287Z,11.76
2023-10-23T16:33:29.458Z,11.90
2023-10-23T16:35:59.247Z,10.90
2023-10-23T16:38:26.302Z,12.08
2023-10-23T16:40:53.455Z,11.48
2023-10-23T16:43:20.999Z,11.66
2023-10-23T16:45:48.755Z,11.81
2023-10-23T16:48:15.856Z,12.25
2023-10-23T16:50:42.994Z,11.86
2023-10-23T16:53:10.766Z,12.01
2023-10-23T16:55:38.276Z,11.57
2023-10-23T16:58:05.846Z,10.60
2023-10-23T17:00:32.946Z,12.23
2023-10-23T17:03:01.520Z,12.12
2023-10-23T17:05:28.719Z,12.01
2023-10-23T17:07:55.965Z,11.08
2023-10-23T17:10:23.127Z,10.71
2023-10-23T17:12:50.191Z,11.63
2023-10-23T17:15:18.453Z,11.99
2023-10-23T17:17:45.621Z,11.43
2023-10-23T17:20:12.988Z,11.49
2023-10-23T17:22:40.204Z,11.58
2023-10-23T17:25:09.341Z,11.28
2023-10-23T17:27:36.710Z,12.10
2023-10-23T17:30:04.489Z,11.46
2023-10-23T17:32:31.761Z,11.72
2023-10-23T17:34:58.848Z,12.05
2023-10-23T17:37:26.002Z,11.39
2023-10-23T17:39:53.925Z,12.02
2023-10-23T17:42:21.032Z,11.10
2023-10-23T17:44:48.488Z,11.31
2023-10-23T17:47:15.685Z,11.77
2023-10-23T17:49:43.302Z,10.36
2023-10-23T17:52:10.632Z,10.47
2023-10-23T17:54:39.897Z,11.97
2023-10-23T17:57:07.221Z,11.94
2023-10-23T17:59:34.869Z,11.94
2023-10-23T18:02:02.296Z,10.71
2023-10-23T18:04:29.557Z,11.06
2023-10-23T18:06:56.824Z,11.92
2023-10-23T18:09:24.276Z,11.92
2023-10-23T18:11:51.558Z,11.28
2023-10-23T18:14:18.669Z,11.55
2023-10-23T18:16:46.241Z,11.90
2023-10-23T18:19:16.146Z,11.89
2023-10-23T18:21:43.920Z,11.59
2023-10-23T18:24:10.992Z,11.27
2023-10-23T18:26:38.521Z,11.23
2023-10-23T18:29:05.596Z,11.29
2023-10-23T18:31:32.798Z,11.29
2023-10-23T18:34:00.239Z,11.05
2023-10-23T18:36:27.352Z,11.87
2023-10-23T18:38:54.585Z,10.95
2023-10-23T18:41:22.080Z,11.87
2023-10-23T18:43:49.750Z,11.64
2023-10-23T18:46:17.215Z,11.86
2023-10-23T18:48:45.396Z,11.52
2023-10-23T18:51:13.625Z,10.99
2023-10-23T18:53:41.556Z,11.02
2023-10-23T18:56:08.905Z,11.84
2023-10-23T18:58:36.196Z,11.84
2023-10-23T19:01:04.003Z,10.80
2023-10-23T19:03:31.834Z,11.08
2023-10-23T19:05:58.989Z,11.81
2023-10-23T19:08:26.368Z,10.69
2023-10-23T19:10:56.222Z,11.36
2023-10-23T19:13:23.336Z,11.79
2023-10-23T19:16:00.988Z,11.27
2023-10-23T19:18:31.001Z,10.94
2023-10-23T19:21:02.855Z,11.78
2023-10-23T19:23:30.174Z,10.86
2023-10-23T19:25:57.460Z,11.14
2023-10-23T19:28:26.753Z,11.14
2023-10-23T19:30:55.172Z,11.61
2023-10-23T19:33:22.648Z,11.00
2023-10-23T19:35:49.964Z,11.79
2023-10-23T19:38:21.286Z,11.81
2023-10-23T19:40:51.575Z,10.20
2023-10-23T19:43:18.753Z,11.82
2023-10-23T19:45:46.152Z,11.01
2023-10-23T19:48:14.114Z,11.43
2023-10-23T19:50:45.984Z,10.99
2023-10-23T19:53:17.201Z,11.86
2023-10-23T19:55:47.148Z,11.87
2023-10-23T19:58:16.423Z,11.48
2023-10-23T20:00:43.983Z,11.67
2023-10-23T20:03:11.354Z,10.63
2023-10-23T20:05:38.567Z,11.61
2023-10-23T20:08:06.145Z,11.03
2023-10-23T20:10:33.698Z,10.46
2023-10-23T20:13:00.889Z,11.39
2023-10-23T20:15:28.592Z,11.83
2023-10-23T20:17:56.330Z,11.84
2023-10-23T20:20:24.001Z,10.96
2023-10-23T20:22:51.423Z,10.77
2023-10-23T20:25:18.941Z,11.61
2023-10-23T20:27:46.499Z,11.41
2023-10-23T20:30:14.065Z,11.20
2023-10-23T20:32:41.365Z,11.84
2023-10-23T20:35:09.727Z,10.47
2023-10-23T20:37:36.899Z,11.43
2023-10-23T20:40:05.135Z,11.76
2023-10-23T20:42:37.298Z,11.60
2023-10-23T20:45:08.480Z,10.59
2023-10-23T20:47:36.091Z,9.76
2023-10-23T20:50:04.279Z,11.55
2023-10-23T20:52:32.347Z,11.07
2023-10-23T20:55:00.128Z,9.60
2023-10-23T20:57:27.403Z,11.72
2023-10-23T20:59:54.470Z,11.53
2023-10-23T21:02:21.628Z,11.03
2023-10-23T21:04:48.763Z,11.73
2023-10-23T21:07:15.918Z,10.19
2023-10-23T21:09:43.413Z,10.44
2023-10-23T21:12:10.692Z,11.41
2023-10-23T21:14:48.273Z,11.76
2023-10-23T21:17:16.512Z,11.19
2023-10-23T21:19:43.783Z,10.91
2023-10-23T21:22:12.455Z,11.41
2023-10-23T21:24:39.600Z,11.77
2023-10-23T21:27:07.281Z,11.34
2023-10-23T21:29:34.352Z,11.43
2023-10-23T21:32:02.054Z,11.42
2023-10-23T21:34:29.470Z,11.78
2023-10-23T21:36:57.131Z,11.55
2023-10-23T21:39:24.280Z,11.77
2023-10-23T21:41:51.946Z,10.46
2023-10-23T21:44:19.381Z,11.42
2023-10-23T21:46:46.999Z,11.31
2023-10-23T21:49:14.250Z,11.32
2023-10-23T21:51:41.527Z,11.76
2023-10-23T21:54:09.017Z,11.05
2023-10-23T21:57:18.964Z,11.55
2023-10-23T21:59:23.621Z,11.19
2023-10-23T22:01:53.612Z,9.80
2023-10-23T22:04:21.462Z,10.63
2023-10-23T22:06:48.906Z,11.32
2023-10-23T22:09:17.231Z,10.94
2023-10-23T22:11:44.717Z,11.50
2023-10-23T22:14:12.133Z,11.08
2023-10-23T22:16:39.353Z,11.50
2023-10-23T22:19:06.824Z,11.10
2023-10-23T22:21:33.964Z,11.48
2023-10-23T22:24:01.091Z,11.13
2023-10-23T22:26:30.808Z,10.72
2023-10-23T22:28:57.902Z,11.71
2023-10-23T22:31:25.064Z,11.52
2023-10-23T22:33:52.181Z,10.90
2023-10-23T22:36:19.263Z,11.69
2023-10-23T22:38:46.388Z,11.69
2023-10-23T22:41:13.848Z,11.19
2023-10-23T22:43:41.026Z,11.32
2023-10-23T22:46:08.168Z,10.98
2023-10-23T22:48:35.322Z,10.52
2023-10-23T22:51:02.593Z,11.11
2023-10-23T22:53:30.645Z,11.68
2023-10-23T22:55:58.263Z,10.68
2023-10-23T22:58:31.111Z,11.28
2023-10-23T23:00:59.245Z,11.34
2023-10-23T23:03:26.835Z,11.35
2023-10-23T23:05:54.467Z,11.66
2023-10-23T23:08:21.888Z,11.67
2023-10-23T23:10:49.101Z,11.68
2023-10-23T23:13:16.478Z,11.12
2023-10-23T23:15:46.499Z,10.70
2023-10-23T23:18:14.776Z,11.70
2023-10-23T23:20:44.423Z,10.23
2023-10-23T23:23:11.587Z,11.70
2023-10-23T23:25:38.729Z,11.70
2023-10-23T23:28:05.952Z,11.24
2023-10-23T23:30:33.140Z,11.70
2023-10-23T23:33:00.361Z,11.70
2023-10-23T23:35:27.487Z,11.68
2023-10-23T23:37:54.540Z,8.79
2023-10-23T23:40:21.621Z,11.43
2023-10-23T23:42:48.771Z,11.28
2023-10-23T23:45:15.862Z,11.65
2023-10-23T23:47:42.991Z,11.67
2023-10-23T23:50:10.311Z,10.70
2023-10-23T23:52:37.432Z,11.24
2023-10-23T23:55:04.900Z,10.99
2023-10-23T23:57:33.334Z,11.52
